Time;durP1;ratioP1;P1;durP2;ratioP2;P2;SDS_P1;SDS_P2;PMS_P1;PMS_P2;Temp;Humidity;BMP_temperature;BMP_pressure;BME280_temperature;BME280_humidity;BME280_pressure;Samples;Min_cycle;Max_cycle;Signal;HPM_P1;HPM_P2
2022/12/10 05:01:34;;;;;;;4.93;4.57;;;0.60;99.90;;;;;;5464003;23;20346;-68
2022/12/10 05:04:02;;;;;;;3.30;2.92;;;0.60;99.90;;;;;;4981698;28;20329;-68
2022/12/10 05:06:29;;;;;;;1.98;1.88;;;0.60;99.90;;;;;;4981384;28;20212;-68
2022/12/10 05:08:56;;;;;;;5.55;5.25;;;0.70;99.90;;;;;;4977372;28;20204;-68
2022/12/10 05:11:25;;;;;;;3.17;2.78;;;0.70;99.90;;;;;;4969263;28;20243;-68
2022/12/10 05:13:53;;;;;;;2.20;2.00;;;0.70;99.90;;;;;;4961215;28;20221;-68
2022/12/10 05:16:21;;;;;;;1.85;1.75;;;0.60;99.90;;;;;;4967019;28;20210;-68
2022/12/10 05:18:49;;;;;;;3.53;1.33;;;0.60;99.90;;;;;;4968819;28;20213;-68
2022/12/10 05:21:19;;;;;;;0.77;0.77;;;0.60;99.90;;;;;;4972226;28;20235;-66
2022/12/10 05:23:46;;;;;;;3.42;1.70;;;0.60;99.90;;;;;;4967127;28;20204;-68
2022/12/10 05:26:15;;;;;;;2.15;2.00;;;0.60;99.90;;;;;;4959158;28;20208;-67
2022/12/10 05:28:43;;;;;;;4.70;2.25;;;0.50;99.90;;;;;;4964398;28;20317;-66
2022/12/10 05:31:13;;;;;;;11.07;5.50;;;0.50;99.90;;;;;;4962966;28;20316;-67
2022/12/10 05:33:40;;;;;;;3.70;1.05;;;0.50;99.90;;;;;;4959040;28;20716;-67
2022/12/10 05:36:11;;;;;;;10.00;2.78;;;0.60;99.90;;;;;;4969517;28;20203;-66
2022/12/10 05:38:38;;;;;;;2.92;2.72;;;0.60;99.90;;;;;;4969728;28;20202;-66
2022/12/10 05:41:06;;;;;;;9.05;5.45;;;0.60;99.90;;;;;;4963543;28;20276;-66
2022/12/10 05:43:34;;;;;;;2.70;2.05;;;0.60;99.90;;;;;;4966271;28;20668;-66
2022/12/10 05:46:02;;;;;;;4.60;3.63;;;0.60;99.90;;;;;;4963753;28;20231;-66
2022/12/10 05:48:29;;;;;;;2.45;2.35;;;0.60;99.90;;;;;;4967047;28;20208;-67
2022/12/10 05:50:55;;;;;;;6.00;5.35;;;0.60;99.90;;;;;;4965397;28;20225;-66
2022/12/10 05:53:24;;;;;;;4.78;4.22;;;0.60;99.90;;;;;;4959401;28;20229;-66
2022/12/10 05:55:59;;;;;;;7.40;5.22;;;0.60;99.90;;;;;;4960237;28;20712;-67
2022/12/10 05:58:28;;;;;;;3.08;2.78;;;0.60;99.90;;;;;;4965737;28;20258;-66
2022/12/10 06:00:55;;;;;;;10.48;3.45;;;0.60;99.90;;;;;;4963741;28;20619;-66
2022/12/10 06:03:21;;;;;;;3.15;3.05;;;0.60;99.90;;;;;;4964495;28;20289;-66
2022/12/10 06:05:48;;;;;;;3.00;2.83;;;0.60;99.90;;;;;;4960466;28;20205;-65
2022/12/10 06:08:15;;;;;;;4.97;2.30;;;0.60;99.90;;;;;;4959800;28;20209;-67
2022/12/10 06:10:43;;;;;;;2.40;1.50;;;0.60;99.90;;;;;;4962985;28;20240;-66
2022/12/10 06:13:09;;;;;;;4.75;1.15;;;0.60;99.90;;;;;;4958005;28;20856;-65
2022/12/10 06:15:39;;;;;;;4.47;3.28;;;0.50;99.90;;;;;;4960584;28;20368;-66
2022/12/10 06:18:06;;;;;;;0.88;0.88;;;0.50;99.90;;;;;;4958617;28;20204;-66
2022/12/10 06:20:33;;;;;;;5.72;2.47;;;0.40;99.90;;;;;;4959151;28;20263;-66
2022/12/10 06:23:00;;;;;;;3.13;2.88;;;0.40;99.90;;;;;;4967070;28;20207;-66
2022/12/10 06:25:26;;;;;;;1.63;1.52;;;0.40;99.90;;;;;;4960525;28;20199;-66
2022/12/10 06:27:54;;;;;;;3.88;1.08;;;0.50;99.90;;;;;;4957385;28;20686;-66
2022/12/10 06:30:21;;;;;;;6.55;4.13;;;0.50;99.90;;;;;;4960652;28;20690;-65
2022/12/10 06:32:48;;;;;;;4.70;3.00;;;0.50;99.90;;;;;;4958469;28;20236;-66
2022/12/10 06:35:15;;;;;;;3.50;2.92;;;0.50;99.90;;;;;;4963844;28;20215;-66
2022/12/10 06:37:41;;;;;;;1.33;1.33;;;0.50;99.90;;;;;;4962640;28;20207;-67
2022/12/10 06:40:09;;;;;;;1.35;1.17;;;0.50;99.90;;;;;;4963612;28;20263;-66
2022/12/10 06:42:35;;;;;;;9.75;3.72;;;0.50;99.90;;;;;;4959617;28;20686;-68
2022/12/10 06:45:04;;;;;;;1.73;1.60;;;0.50;99.90;;;;;;4964862;28;20215;-67
2022/12/10 06:47:31;;;;;;;5.00;2.70;;;0.50;99.90;;;;;;4964535;28;20227;-67
2022/12/10 06:49:58;;;;;;;6.95;4.03;;;0.40;99.90;;;;;;4966111;28;20262;-67
2022/12/10 06:52:24;;;;;;;3.80;2.92;;;0.50;99.90;;;;;;4962907;28;20702;-67
2022/12/10 06:54:51;;;;;;;7.20;3.70;;;0.40;99.90;;;;;;4959929;28;20207;-67
2022/12/10 06:57:18;;;;;;;4.13;0.88;;;0.50;99.90;;;;;;4967526;28;20205;-67
2022/12/10 06:59:44;;;;;;;4.00;2.83;;;0.50;99.90;;;;;;4964379;28;20207;-67
2022/12/10 07:02:12;;;;;;;1.48;1.38;;;0.40;99.90;;;;;;4963762;28;21443;-67
2022/12/10 07:04:39;;;;;;;6.38;3.03;;;0.50;99.90;;;;;;4964141;28;20212;-67
2022/12/10 07:07:07;;;;;;;5.10;3.22;;;0.40;99.90;;;;;;4964477;28;20205;-68
2022/12/10 07:09:34;;;;;;;4.53;4.28;;;0.40;99.90;;;;;;4956107;28;20244;-67
2022/12/10 07:12:00;;;;;;;7.47;1.98;;;0.40;99.90;;;;;;4959263;28;20603;-67
2022/12/10 07:14:27;;;;;;;4.55;3.60;;;0.40;99.90;;;;;;4967158;28;20208;-67
2022/12/10 07:16:54;;;;;;;4.47;4.28;;;0.40;99.90;;;;;;4965299;28;20302;-67
2022/12/10 07:19:22;;;;;;;3.15;2.90;;;0.40;99.90;;;;;;4964844;28;20220;-66
2022/12/10 07:21:50;;;;;;;15.48;4.38;;;0.40;99.90;;;;;;4959808;28;20227;-66
2022/12/10 07:24:19;;;;;;;2.35;1.77;;;0.40;99.90;;;;;;4965262;28;20217;-66
2022/12/10 07:26:47;;;;;;;6.35;4.60;;;0.40;99.90;;;;;;4966711;28;20281;-67
2022/12/10 07:29:16;;;;;;;7.00;2.78;;;0.50;99.90;;;;;;4965038;28;20316;-67
2022/12/10 07:31:42;;;;;;;3.95;3.53;;;0.50;99.90;;;;;;4959697;28;20597;-66
2022/12/10 07:34:10;;;;;;;3.05;2.95;;;0.40;99.90;;;;;;4956258;28;20268;-69
2022/12/10 07:36:39;;;;;;;3.17;2.20;;;0.40;99.90;;;;;;4954406;28;20575;-68
2022/12/10 07:39:07;;;;;;;7.20;2.60;;;0.40;99.90;;;;;;4966453;28;20223;-69
2022/12/10 07:41:34;;;;;;;2.95;2.75;;;0.40;99.90;;;;;;4961341;28;20239;-69
2022/12/10 07:44:01;;;;;;;6.75;2.33;;;0.40;99.90;;;;;;4955798;28;20234;-68
2022/12/10 07:46:30;;;;;;;9.73;2.72;;;0.40;99.90;;;;;;4960114;28;20534;-69
2022/12/10 07:48:57;;;;;;;8.65;3.92;;;0.40;99.90;;;;;;4955277;28;20212;-68
2022/12/10 07:51:24;;;;;;;3.95;3.75;;;0.40;99.90;;;;;;4964116;28;20232;-69
2022/12/10 07:53:54;;;;;;;4.97;4.78;;;0.40;99.90;;;;;;4963019;28;20224;-69
2022/12/10 07:56:22;;;;;;;4.18;3.40;;;0.40;99.90;;;;;;4958309;28;20215;-68
2022/12/10 07:58:49;;;;;;;7.38;3.28;;;0.40;99.90;;;;;;4959622;28;20239;-69
2022/12/10 08:01:18;;;;;;;4.40;3.95;;;0.40;99.90;;;;;;4966805;28;20280;-69
2022/12/10 08:03:45;;;;;;;4.78;2.88;;;0.40;99.90;;;;;;4963165;28;20216;-68
2022/12/10 08:06:14;;;;;;;2.05;1.95;;;0.40;99.90;;;;;;4965904;28;20237;-68
2022/12/10 08:08:42;;;;;;;12.70;3.58;;;0.40;99.90;;;;;;4960210;28;20215;-67
2022/12/10 08:11:11;;;;;;;1.40;1.30;;;0.40;99.90;;;;;;4966101;28;20230;-68
2022/12/10 08:13:39;;;;;;;3.53;3.13;;;0.40;99.90;;;;;;4964358;28;20238;-68
2022/12/10 08:16:12;;;;;;;3.70;3.47;;;0.50;99.90;;;;;;4959835;28;20211;-69
2022/12/10 08:18:39;;;;;;;4.40;2.65;;;0.50;99.90;;;;;;4969691;28;20204;-67
2022/12/10 08:21:06;;;;;;;4.88;3.70;;;0.50;99.90;;;;;;4969705;28;20231;-68
2022/12/10 08:23:33;;;;;;;3.80;3.53;;;0.50;99.90;;;;;;4969233;28;20200;-69
2022/12/10 08:26:04;;;;;;;5.47;5.07;;;0.50;99.90;;;;;;4958305;28;20228;-69
2022/12/10 08:28:32;;;;;;;3.65;2.60;;;0.50;99.90;;;;;;4967925;28;20215;-68
2022/12/10 08:30:59;;;;;;;4.85;2.90;;;0.50;99.90;;;;;;4968879;28;20227;-71
2022/12/10 08:33:26;;;;;;;7.43;6.03;;;0.50;99.90;;;;;;4962106;28;20219;-68
2022/12/10 08:35:52;;;;;;;8.90;4.53;;;0.50;99.90;;;;;;4965861;28;20663;-69
2022/12/10 08:38:19;;;;;;;4.82;4.63;;;0.50;99.90;;;;;;4961095;28;20388;-69
2022/12/10 08:40:46;;;;;;;3.95;1.52;;;0.50;99.90;;;;;;4965601;28;20231;-67
2022/12/10 08:43:12;;;;;;;2.42;2.33;;;0.50;99.90;;;;;;4968425;28;20643;-68
2022/12/10 08:45:41;;;;;;;12.10;6.20;;;0.50;99.90;;;;;;4967259;28;20211;-67
2022/12/10 08:48:07;;;;;;;5.13;3.75;;;0.60;99.90;;;;;;4967601;28;20661;-69
2022/12/10 08:50:34;;;;;;;4.38;2.60;;;0.60;99.90;;;;;;4977797;28;20234;-68
2022/12/10 08:53:01;;;;;;;4.75;4.32;;;0.60;99.90;;;;;;4975415;28;20227;-69
2022/12/10 08:55:27;;;;;;;2.92;2.70;;;0.60;99.90;;;;;;4975185;28;20226;-70
2022/12/10 08:57:54;;;;;;;3.33;2.30;;;0.60;99.90;;;;;;4972028;28;20223;-69
2022/12/10 09:00:21;;;;;;;1.75;1.65;;;0.60;99.90;;;;;;4974129;28;20283;-69
2022/12/10 09:02:49;;;;;;;2.38;2.28;;;0.60;99.90;;;;;;4967445;28;20219;-68
2022/12/10 09:05:16;;;;;;;3.70;1.40;;;0.60;99.90;;;;;;4958157;28;20216;-70
2022/12/10 09:07:43;;;;;;;1.80;1.77;;;0.50;99.90;;;;;;4963167;28;20204;-72
2022/12/10 09:10:11;;;;;;;0.47;0.47;;;0.50;99.90;;;;;;4974309;28;20223;-70
2022/12/10 09:12:37;;;;;;;3.67;3.35;;;0.50;99.90;;;;;;4962086;28;20316;-69
2022/12/10 09:15:05;;;;;;;3.20;3.00;;;0.50;99.90;;;;;;4966852;28;20204;-69
2022/12/10 09:17:32;;;;;;;2.80;1.95;;;0.50;99.90;;;;;;4963807;28;20220;-71
2022/12/10 09:20:00;;;;;;;1.58;1.58;;;0.60;99.90;;;;;;4960726;28;20216;-70
2022/12/10 09:22:26;;;;;;;3.13;2.15;;;0.60;99.90;;;;;;4967250;28;20227;-70
2022/12/10 09:24:53;;;;;;;1.38;0.93;;;0.60;99.90;;;;;;4959700;28;20524;-70
2022/12/10 09:27:20;;;;;;;10.25;4.47;;;0.60;99.90;;;;;;4966889;28;20672;-70
2022/12/10 09:29:47;;;;;;;11.30;3.42;;;0.60;99.90;;;;;;4960329;28;20292;-70
2022/12/10 09:32:13;;;;;;;4.72;4.38;;;0.60;99.90;;;;;;4968564;28;20275;-70
2022/12/10 09:34:40;;;;;;;3.65;3.28;;;0.60;99.90;;;;;;4972905;28;20552;-70
2022/12/10 09:37:08;;;;;;;8.75;4.03;;;0.60;99.90;;;;;;4984897;28;20212;-67
2022/12/10 09:39:35;;;;;;;3.25;3.15;;;0.60;99.90;;;;;;4985631;28;20219;-69
2022/12/10 09:42:27;;;;;;;1.38;1.20;;;0.50;99.90;;;;;;4983292;28;20231;-69
2022/12/10 09:45:02;;;;;;;3.50;2.53;;;0.50;99.90;;;;;;4976557;28;20269;-69
2022/12/10 09:47:36;;;;;;;3.05;2.33;;;0.60;99.90;;;;;;4958642;28;20643;-69
2022/12/10 09:50:12;;;;;;;1.20;1.20;;;0.60;99.90;;;;;;4964678;28;20241;-70
2022/12/10 09:52:45;;;;;;;2.42;1.00;;;0.60;99.90;;;;;;4965515;28;20233;-68
2022/12/10 09:55:15;;;;;;;4.10;2.28;;;0.60;99.90;;;;;;4977136;28;20208;-68
2022/12/10 09:57:45;;;;;;;0.82;0.82;;;0.60;99.90;;;;;;4975111;28;20714;-68
2022/12/10 10:00:26;;;;;;;2.97;2.88;;;0.60;99.90;;;;;;4963430;28;20214;-68
2022/12/10 10:02:55;;;;;;;3.78;3.40;;;0.60;99.90;;;;;;4970152;28;20235;-69
2022/12/10 10:05:24;;;;;;;2.10;2.10;;;0.60;99.90;;;;;;4965638;28;20279;-70
2022/12/10 10:07:55;;;;;;;1.30;1.13;;;0.60;99.90;;;;;;4959837;28;20306;-70
2022/12/10 10:10:27;;;;;;;4.60;1.58;;;0.60;99.90;;;;;;4962208;28;20288;-69
2022/12/10 10:12:58;;;;;;;1.65;1.38;;;0.60;99.90;;;;;;4955840;28;20240;-70
2022/12/10 10:15:30;;;;;;;1.55;1.55;;;0.60;99.90;;;;;;4962648;28;20210;-71
2022/12/10 10:18:02;;;;;;;2.50;2.30;;;0.70;99.90;;;;;;4969431;28;20208;-70
2022/12/10 10:20:30;;;;;;;3.03;2.92;;;0.60;99.90;;;;;;4968869;28;20212;-70
2022/12/10 10:23:00;;;;;;;1.58;1.45;;;0.60;99.90;;;;;;4969654;28;20259;-67
2022/12/10 10:25:28;;;;;;;6.85;3.60;;;0.70;99.90;;;;;;4960011;28;20574;-69
2022/12/10 10:27:55;;;;;;;1.17;1.10;;;0.70;99.90;;;;;;4960509;28;20213;-69
2022/12/10 10:30:24;;;;;;;3.63;3.33;;;0.70;99.90;;;;;;4962496;28;20207;-70
2022/12/10 10:32:52;;;;;;;4.40;2.92;;;0.80;99.90;;;;;;4965777;28;20252;-69
2022/12/10 10:35:29;;;;;;;4.57;4.32;;;0.70;99.90;;;;;;4960072;28;20279;-67
2022/12/10 10:38:07;;;;;;;2.10;1.95;;;0.80;99.90;;;;;;4969600;28;20208;-69
2022/12/10 10:40:40;;;;;;;2.67;2.20;;;0.80;99.90;;;;;;4968284;28;20208;-69
2022/12/10 10:43:13;;;;;;;1.92;1.83;;;0.80;99.90;;;;;;4962788;28;20208;-68
2022/12/10 10:45:41;;;;;;;2.38;1.90;;;0.90;99.90;;;;;;4965650;28;20204;-69
2022/12/10 10:48:13;;;;;;;1.70;1.15;;;0.90;99.90;;;;;;4955680;28;20199;-68
2022/12/10 10:50:42;;;;;;;4.97;1.88;;;0.90;99.90;;;;;;4955106;28;21998;-69
2022/12/10 10:53:23;;;;;;;2.60;1.73;;;0.80;99.90;;;;;;4957555;28;23069;-69
2022/12/10 10:55:52;;;;;;;9.85;3.65;;;0.80;99.90;;;;;;4964762;28;20206;-70
2022/12/10 10:58:19;;;;;;;2.65;2.17;;;0.80;99.90;;;;;;4960422;28;20208;-70
2022/12/10 11:00:55;;;;;;;7.33;1.10;;;0.80;99.90;;;;;;4934725;28;1049631;-70
2022/12/10 11:03:22;;;;;;;1.25;1.25;;;0.80;99.90;;;;;;4960110;28;20475;-68
2022/12/10 11:05:49;;;;;;;3.60;2.50;;;0.80;99.90;;;;;;4957534;28;20661;-69
2022/12/10 11:08:18;;;;;;;3.80;2.08;;;0.80;99.90;;;;;;4958201;28;20212;-68
2022/12/10 11:10:50;;;;;;;6.38;2.05;;;0.80;99.90;;;;;;4970276;28;20777;-68
2022/12/10 11:13:25;;;;;;;4.28;3.17;;;0.90;99.90;;;;;;4969127;28;20266;-64
2022/12/10 11:16:08;;;;;;;3.78;1.80;;;0.90;99.90;;;;;;4970505;28;20208;-65
2022/12/10 11:18:37;;;;;;;7.78;3.78;;;0.90;99.90;;;;;;4959019;28;20209;-67
2022/12/10 11:21:06;;;;;;;2.15;2.05;;;0.90;99.90;;;;;;4966799;28;20239;-68
2022/12/10 11:23:39;;;;;;;1.38;1.38;;;0.90;99.90;;;;;;4962610;28;20536;-71
2022/12/10 11:26:29;;;;;;;1.88;1.85;;;0.80;99.90;;;;;;4970452;28;20649;-70
2022/12/10 11:29:06;;;;;;;2.72;1.85;;;0.80;99.90;;;;;;4984891;23;20232;-67
2022/12/10 11:31:44;;;;;;;5.22;2.13;;;0.70;99.90;;;;;;4966796;28;20207;-67
2022/12/10 11:34:18;;;;;;;13.52;3.83;;;0.80;99.90;;;;;;4967223;28;20563;-67
2022/12/10 11:36:54;;;;;;;2.47;1.05;;;0.80;99.90;;;;;;4968532;28;20214;-66
2022/12/10 11:39:46;;;;;;;3.60;3.50;;;0.80;99.90;;;;;;4969962;28;20273;-67
2022/12/10 11:42:23;;;;;;;4.78;4.40;;;0.90;99.90;;;;;;4970690;28;20204;-66
2022/12/10 11:44:59;;;;;;;5.20;3.35;;;0.90;99.90;;;;;;4969384;28;20255;-67
2022/12/10 11:47:44;;;;;;;2.58;1.38;;;0.90;99.90;;;;;;4955964;28;20211;-67
2022/12/10 11:50:21;;;;;;;1.20;1.20;;;0.90;99.90;;;;;;4972342;28;20229;-67
2022/12/10 11:53:05;;;;;;;4.45;2.25;;;0.90;99.90;;;;;;4971288;28;20524;-68
2022/12/10 11:55:39;;;;;;;2.92;2.83;;;0.90;99.90;;;;;;4964008;28;20241;-66
2022/12/10 11:58:23;;;;;;;7.65;2.17;;;0.80;99.90;;;;;;4971245;28;20215;-67
2022/12/10 12:00:58;;;;;;;15.27;3.85;;;0.80;99.90;;;;;;4970988;28;20742;-67
2022/12/10 12:03:41;;;;;;;2.67;2.38;;;0.80;99.90;;;;;;4957690;28;20213;-66
2022/12/10 12:06:25;;;;;;;3.05;2.88;;;0.80;99.90;;;;;;4968271;28;20582;-66
2022/12/10 12:08:59;;;;;;;1.40;1.40;;;0.90;99.90;;;;;;4970146;28;20307;-67
2022/12/10 12:11:50;;;;;;;5.88;3.67;;;0.90;99.90;;;;;;4967673;28;20219;-67
2022/12/10 12:14:23;;;;;;;17.85;4.53;;;0.90;99.90;;;;;;4963597;28;20228;-66
2022/12/10 12:16:57;;;;;;;5.88;5.22;;;1.00;99.90;;;;;;4966238;28;20227;-67
2022/12/10 12:19:35;;;;;;;7.28;5.05;;;0.90;99.90;;;;;;4970319;28;20235;-66
2022/12/10 12:22:23;;;;;;;2.30;2.10;;;0.90;99.90;;;;;;4970476;28;20357;-66
2022/12/10 12:24:54;;;;;;;5.35;3.70;;;0.90;99.90;;;;;;4969312;28;20209;-66
2022/12/10 12:27:27;;;;;;;5.20;4.80;;;0.90;99.90;;;;;;4970506;28;20216;-67
2022/12/10 12:30:04;;;;;;;3.72;3.17;;;0.90;99.90;;;;;;4968398;28;20252;-66
2022/12/10 12:32:37;;;;;;;4.40;1.42;;;0.90;99.90;;;;;;4968366;28;20208;-66
2022/12/10 12:35:10;;;;;;;6.10;5.00;;;0.90;99.90;;;;;;4969652;28;20260;-66
2022/12/10 12:37:42;;;;;;;2.92;2.72;;;0.90;99.90;;;;;;4963837;28;20205;-66
2022/12/10 12:40:14;;;;;;;6.90;4.13;;;0.90;99.90;;;;;;4970673;28;20228;-66
2022/12/10 12:42:47;;;;;;;2.88;2.72;;;0.90;99.90;;;;;;4969565;28;20300;-67
2022/12/10 12:45:19;;;;;;;3.05;2.80;;;0.90;99.90;;;;;;4967077;28;20212;-66
2022/12/10 12:47:51;;;;;;;8.13;4.20;;;0.90;99.90;;;;;;4960211;28;20271;-67
2022/12/10 12:50:26;;;;;;;3.83;3.63;;;0.90;99.90;;;;;;4971452;28;20239;-67
2022/12/10 12:52:55;;;;;;;9.07;3.65;;;0.90;99.90;;;;;;4960473;28;20932;-67
2022/12/10 12:55:28;;;;;;;2.90;2.08;;;0.90;99.90;;;;;;4966774;28;20318;-67
2022/12/10 12:58:01;;;;;;;3.60;2.80;;;0.80;99.90;;;;;;4967444;28;20299;-67
2022/12/10 13:00:35;;;;;;;3.22;2.78;;;0.80;99.90;;;;;;4964237;28;20279;-67
2022/12/10 13:03:18;;;;;;;4.10;3.83;;;0.80;99.90;;;;;;4969282;28;20279;-67
2022/12/10 13:05:45;;;;;;;5.07;2.08;;;0.80;99.90;;;;;;4963812;28;20583;-68
2022/12/10 13:08:31;;;;;;;4.53;4.18;;;0.80;99.90;;;;;;4969699;28;20278;-67
2022/12/10 13:11:17;;;;;;;6.82;4.35;;;0.80;99.90;;;;;;4961207;28;20667;-67
2022/12/10 13:14:13;;;;;;;12.63;8.98;;;0.80;99.90;;;;;;4967802;28;20733;-67
2022/12/10 13:17:07;;;;;;;5.38;2.33;;;0.80;99.90;;;;;;4963456;28;20246;-67
2022/12/10 13:19:35;;;;;;;1.33;1.30;;;0.80;99.90;;;;;;4963596;28;20243;-67
2022/12/10 13:22:05;;;;;;;4.82;4.53;;;0.80;99.90;;;;;;4970040;28;20205;-68
2022/12/10 13:24:48;;;;;;;7.40;6.05;;;0.80;99.90;;;;;;4968540;28;20205;-68
2022/12/10 13:27:20;;;;;;;5.80;5.25;;;0.90;99.90;;;;;;4967788;28;20203;-68
2022/12/10 13:29:54;;;;;;;3.08;2.90;;;0.90;99.90;;;;;;4972523;28;20640;-67
2022/12/10 13:32:25;;;;;;;7.82;2.63;;;0.90;99.90;;;;;;4964005;28;20209;-67
2022/12/10 13:35:17;;;;;;;4.03;2.00;;;0.90;99.90;;;;;;4965589;28;20221;-66
2022/12/10 13:37:56;;;;;;;7.63;2.38;;;0.90;99.90;;;;;;4972190;28;20317;-66
2022/12/10 13:46:22;;;;;;;3.55;1.65;;;0.80;99.90;;;;;;4965927;28;20254;-68
2022/12/10 13:48:53;;;;;;;2.10;2.03;;;0.70;99.90;;;;;;4972814;28;20543;-68
2022/12/10 13:51:40;;;;;;;2.33;2.22;;;0.70;99.90;;;;;;4974363;28;20215;-68
2022/12/10 13:54:26;;;;;;;2.15;2.08;;;0.70;99.90;;;;;;4963292;28;20262;-68
2022/12/10 13:57:02;;;;;;;2.47;1.95;;;0.70;99.90;;;;;;4970341;28;20211;-68
2022/12/10 13:59:38;;;;;;;2.88;1.25;;;0.80;99.90;;;;;;4970407;28;20232;-68
2022/12/10 14:02:42;;;;;;;3.70;3.47;;;0.80;99.90;;;;;;4966360;28;20212;-68
2022/12/10 14:05:26;;;;;;;8.57;3.00;;;0.70;99.90;;;;;;4956589;28;20216;-68
2022/12/10 14:07:56;;;;;;;2.10;2.00;;;0.80;99.90;;;;;;4965238;28;20220;-68
2022/12/10 14:10:26;;;;;;;1.52;1.40;;;0.70;99.90;;;;;;4973161;28;20235;-68
2022/12/10 14:12:55;;;;;;;1.30;1.30;;;0.80;99.90;;;;;;4963121;28;20224;-68
2022/12/10 14:15:24;;;;;;;2.10;1.85;;;0.70;99.90;;;;;;4966922;28;20697;-68
2022/12/10 14:17:54;;;;;;;3.03;2.83;;;0.70;99.90;;;;;;4971427;28;20212;-68
2022/12/10 14:20:24;;;;;;;5.45;4.85;;;0.70;99.90;;;;;;4962759;28;20234;-67
2022/12/10 14:22:53;;;;;;;1.40;1.30;;;0.70;99.90;;;;;;4971800;28;20208;-67
2022/12/10 14:25:22;;;;;;;3.28;3.13;;;0.70;99.90;;;;;;4970129;28;20215;-67
2022/12/10 14:27:51;;;;;;;2.10;2.00;;;0.70;99.90;;;;;;4970480;28;20647;-66
2022/12/10 14:30:20;;;;;;;5.03;3.60;;;0.70;99.90;;;;;;4967809;28;20244;-67
2022/12/10 14:32:48;;;;;;;5.43;2.25;;;0.60;99.90;;;;;;4971509;28;20263;-67
2022/12/10 14:35:17;;;;;;;3.40;2.35;;;0.70;99.90;;;;;;4961952;28;20734;-67
2022/12/10 14:37:47;;;;;;;1.48;1.48;;;0.70;99.90;;;;;;4963970;28;20201;-67
2022/12/10 14:40:22;;;;;;;1.25;0.75;;;0.70;99.90;;;;;;4969380;28;20706;-67
2022/12/10 14:42:49;;;;;;;1.15;1.15;;;0.60;99.90;;;;;;4972011;28;20555;-68
2022/12/10 14:45:17;;;;;;;3.53;2.78;;;0.60;99.90;;;;;;4971860;28;20375;-67
2022/12/10 14:47:44;;;;;;;0.22;0.22;;;0.60;99.90;;;;;;4969754;28;20212;-67
2022/12/10 14:50:13;;;;;;;2.08;1.98;;;0.60;99.90;;;;;;4965677;28;20323;-65
2022/12/10 14:52:42;;;;;;;17.55;4.20;;;0.70;99.90;;;;;;4971547;28;20306;-67
2022/12/10 14:55:15;;;;;;;3.13;2.40;;;0.60;99.90;;;;;;4969016;28;20251;-66
2022/12/10 14:57:43;;;;;;;2.95;2.85;;;0.60;99.90;;;;;;4967070;28;20230;-68
2022/12/10 15:00:15;;;;;;;5.85;3.05;;;0.60;99.90;;;;;;4972091;28;20286;-67
2022/12/10 15:02:44;;;;;;;0.68;0.68;;;0.60;99.90;;;;;;4970208;28;20546;-68
2022/12/10 15:05:13;;;;;;;2.20;2.00;;;0.50;99.90;;;;;;4966927;28;20606;-69
2022/12/10 15:07:40;;;;;;;2.40;2.25;;;0.40;99.90;;;;;;4963315;28;20609;-68
2022/12/10 15:10:21;;;;;;;2.58;2.00;;;0.40;99.90;;;;;;4962290;28;20224;-69
2022/12/10 15:12:51;;;;;;;1.40;1.40;;;0.40;99.90;;;;;;4965385;28;20563;-68
2022/12/10 15:15:25;;;;;;;1.85;1.55;;;0.50;99.90;;;;;;4970192;28;20246;-69
2022/12/10 15:17:56;;;;;;;3.33;3.03;;;0.50;99.90;;;;;;4969528;28;20215;-66
2022/12/10 15:20:26;;;;;;;5.47;4.15;;;0.50;99.90;;;;;;4971715;28;20705;-68
2022/12/10 15:22:53;;;;;;;1.20;1.20;;;0.50;99.90;;;;;;4969657;28;20275;-68
2022/12/10 15:25:29;;;;;;;3.40;3.25;;;0.60;99.90;;;;;;4965971;28;20204;-67
2022/12/10 15:28:00;;;;;;;2.20;2.08;;;0.60;99.90;;;;;;4971321;28;20200;-68
2022/12/10 15:30:38;;;;;;;4.10;3.47;;;0.60;99.90;;;;;;4962330;28;20301;-68
2022/12/10 15:33:21;;;;;;;5.80;3.55;;;0.60;99.90;;;;;;4967331;28;20205;-68
2022/12/10 15:35:48;;;;;;;2.55;2.55;;;0.60;99.90;;;;;;4960336;28;20318;-68
2022/12/10 15:38:15;;;;;;;3.00;2.83;;;0.60;99.90;;;;;;4957402;28;20212;-67
2022/12/10 15:40:42;;;;;;;4.72;4.22;;;0.60;99.90;;;;;;4964296;28;20235;-67
2022/12/10 15:43:25;;;;;;;2.85;2.75;;;0.60;99.90;;;;;;4971161;28;20204;-67
2022/12/10 15:45:52;;;;;;;5.15;3.10;;;0.60;99.90;;;;;;4971095;28;20255;-67
2022/12/10 15:48:20;;;;;;;3.13;2.97;;;0.60;99.90;;;;;;4969136;28;20223;-68
2022/12/10 15:50:48;;;;;;;2.78;2.55;;;0.60;99.90;;;;;;4971385;28;20207;-68
2022/12/10 15:53:22;;;;;;;2.72;2.53;;;0.60;99.90;;;;;;4967570;28;20208;-66
2022/12/10 15:55:48;;;;;;;3.83;3.58;;;0.60;99.90;;;;;;4963206;28;20228;-68
2022/12/10 15:58:16;;;;;;;3.75;3.20;;;0.60;99.90;;;;;;4956718;28;20582;-68
2022/12/10 16:00:46;;;;;;;9.93;4.32;;;0.60;99.90;;;;;;4969629;28;20223;-69
2022/12/10 16:03:15;;;;;;;2.15;1.65;;;0.60;99.90;;;;;;4961157;28;20207;-67
2022/12/10 16:05:42;;;;;;;11.65;3.17;;;0.60;99.90;;;;;;4962980;28;20200;-68
2022/12/10 16:08:14;;;;;;;3.28;2.90;;;0.60;99.90;;;;;;4961800;28;20212;-69
2022/12/10 16:10:41;;;;;;;2.33;2.22;;;0.60;99.90;;;;;;4971218;28;20320;-67
2022/12/10 16:13:15;;;;;;;2.20;2.08;;;0.60;99.90;;;;;;4963415;28;20211;-69
2022/12/10 16:15:47;;;;;;;1.73;1.23;;;0.60;99.90;;;;;;4971004;28;20311;-70
2022/12/10 16:18:13;;;;;;;5.70;2.22;;;0.60;99.90;;;;;;4963379;28;20214;-69
2022/12/10 16:20:41;;;;;;;2.72;1.50;;;0.50;99.90;;;;;;4971498;28;20617;-69
2022/12/10 16:23:08;;;;;;;4.57;3.78;;;0.50;99.90;;;;;;4971085;28;20206;-68
2022/12/10 16:25:36;;;;;;;1.98;1.95;;;0.40;99.90;;;;;;4969642;28;20204;-68
2022/12/10 16:28:03;;;;;;;2.03;1.95;;;0.50;99.90;;;;;;4969191;28;20579;-67
2022/12/10 16:30:34;;;;;;;7.20;3.53;;;0.50;99.90;;;;;;4971503;28;20258;-69
2022/12/10 16:33:02;;;;;;;3.28;3.08;;;0.50;99.90;;;;;;4967889;28;20240;-69
2022/12/10 16:35:29;;;;;;;7.00;2.40;;;0.50;99.90;;;;;;4964579;28;20253;-69
2022/12/10 16:37:57;;;;;;;6.93;4.95;;;0.50;99.90;;;;;;4970598;28;20639;-69
2022/12/10 16:40:24;;;;;;;8.27;7.78;;;0.50;99.90;;;;;;4971435;28;20633;-69
2022/12/10 16:42:51;;;;;;;4.82;4.63;;;0.50;99.90;;;;;;4971305;28;20548;-69
2022/12/10 16:45:21;;;;;;;7.13;2.75;;;0.60;99.90;;;;;;4968932;28;20618;-69
2022/12/10 16:47:47;;;;;;;4.38;2.50;;;0.60;99.90;;;;;;4962833;28;20210;-69
2022/12/10 16:50:17;;;;;;;13.35;6.53;;;0.60;99.90;;;;;;4971413;28;20715;-68
2022/12/10 16:52:44;;;;;;;2.17;2.10;;;0.60;99.90;;;;;;4970689;28;20215;-69
2022/12/10 16:55:14;;;;;;;3.33;3.13;;;0.50;99.90;;;;;;4969665;28;20224;-69
2022/12/10 16:57:44;;;;;;;2.58;2.47;;;0.40;99.90;;;;;;4970029;28;20224;-70
2022/12/10 17:00:12;;;;;;;5.90;4.25;;;0.40;99.90;;;;;;4970570;28;20225;-70
2022/12/10 17:02:39;;;;;;;2.00;1.92;;;0.40;99.90;;;;;;4968056;28;20682;-70
2022/12/10 17:05:14;;;;;;;4.32;4.03;;;0.40;99.90;;;;;;4969616;28;20204;-70
2022/12/10 17:07:42;;;;;;;6.72;3.53;;;0.30;99.90;;;;;;4975085;28;20219;-70
2022/12/10 17:10:11;;;;;;;2.15;2.05;;;0.40;99.90;;;;;;4976314;28;20290;-67
2022/12/10 17:12:39;;;;;;;2.97;2.13;;;0.40;99.90;;;;;;4965788;28;20248;-70
2022/12/10 17:15:09;;;;;;;5.82;3.47;;;0.40;99.90;;;;;;4972753;28;20212;-68
2022/12/10 17:17:36;;;;;;;4.82;3.08;;;0.40;99.90;;;;;;4972833;28;20215;-67
2022/12/10 17:20:03;;;;;;;4.82;4.50;;;0.50;99.90;;;;;;4974745;28;20271;-67
2022/12/10 17:22:29;;;;;;;6.18;4.25;;;0.50;99.90;;;;;;4973694;28;20208;-67
2022/12/10 17:24:57;;;;;;;3.85;3.45;;;0.50;99.90;;;;;;4974338;28;20230;-68
2022/12/10 17:27:24;;;;;;;4.00;3.75;;;0.50;99.90;;;;;;4964560;28;20211;-67
2022/12/10 17:29:53;;;;;;;0.90;0.90;;;0.40;99.90;;;;;;4972195;28;20236;-68
2022/12/10 17:32:22;;;;;;;2.47;2.28;;;0.40;99.90;;;;;;4966210;28;20296;-68
2022/12/10 17:34:49;;;;;;;2.13;2.10;;;0.40;99.90;;;;;;4962800;28;20208;-68
2022/12/10 17:37:18;;;;;;;2.38;1.58;;;0.40;99.90;;;;;;4964750;28;20240;-69
2022/12/10 17:39:45;;;;;;;4.72;3.75;;;0.40;99.90;;;;;;4974160;28;20231;-69
2022/12/10 17:42:13;;;;;;;1.73;1.70;;;0.40;99.90;;;;;;4997583;23;20647;-67
2022/12/10 17:44:40;;;;;;;4.63;3.55;;;0.40;99.90;;;;;;4970733;28;20550;-67
2022/12/10 17:47:17;;;;;;;1.80;1.70;;;0.40;99.90;;;;;;4970523;28;20210;-68
2022/12/10 17:49:44;;;;;;;2.50;2.50;;;0.30;99.90;;;;;;4969181;28;20297;-67
2022/12/10 17:52:11;;;;;;;3.63;3.33;;;0.30;99.90;;;;;;4965361;28;20250;-68
2022/12/10 17:54:38;;;;;;;8.10;4.22;;;0.30;99.90;;;;;;4954057;29;20600;-70
2022/12/10 17:57:10;;;;;;;2.85;2.65;;;0.30;99.90;;;;;;4954085;29;20722;-67
2022/12/10 17:59:42;;;;;;;3.00;2.83;;;0.30;99.90;;;;;;4954028;29;20222;-67
2022/12/10 18:02:09;;;;;;;3.90;3.60;;;0.20;99.90;;;;;;4952765;28;20244;-67
2022/12/10 18:04:35;;;;;;;1.30;1.30;;;0.20;99.90;;;;;;4953859;29;20230;-67
2022/12/10 18:07:02;;;;;;;3.88;3.33;;;0.20;99.90;;;;;;4953604;29;20199;-69
2022/12/10 18:09:29;;;;;;;3.50;3.20;;;0.20;99.90;;;;;;4953976;29;20629;-68
2022/12/10 18:11:56;;;;;;;6.40;4.95;;;0.20;99.90;;;;;;4952313;28;20212;-67
2022/12/10 18:14:23;;;;;;;2.60;2.45;;;0.20;99.90;;;;;;4937836;28;20627;-68
2022/12/10 18:16:51;;;;;;;3.25;3.05;;;0.20;99.90;;;;;;4949203;29;20279;-68
2022/12/10 18:19:18;;;;;;;5.40;2.17;;;0.20;99.90;;;;;;4951952;29;20211;-67